Aviation Digital Data Service (ADDS)

Output produced by TAFs form (1957 UTC 25 February 2018)
found at http://aviationweather.gov/adds/tafs/
 
METAR text: LIML 251950Z 02003KT 9999 FEW040 BKN070 M01/M06 Q1015 NOSIG
Conditions at: LIML (MILANO/LINATE , IT) observed 1950 UTC 25 February 2018
Temperature: -1.0°C (30°F)
Dewpoint: -6.0°C (21°F) [RH = 69%]
Pressure (altimeter): 29.97 inches Hg (1015.0 mb)
Winds: from the NNE (20 degrees) at 3 MPH (3 knots; 1.6 m/s)
Visibility: 6 or more miles (10+ km)
Ceiling: 7000 feet AGL
Clouds: few clouds at 4000 feet AGL
broken clouds at 7000 feet AGL
Weather: no significant weather observed at this time

Forecast for: LIML (MILANO/LINATE , IT)
Text: TAF LIML 251700Z 2518/2618 10010KT 9999 BKN050
Forecast period: 1800 UTC 25 February 2018 to 1800 UTC 26 February 2018
Forecast type: FROM: standard forecast or significant change
Winds: from the E (100 degrees) at 12 MPH (10 knots; 5.2 m/s)
Visibility: 6 or more miles (10+ km)
Ceiling: 5000 feet AGL
Clouds: broken clouds at 5000 feet AGL
Weather: no significant weather forecast for this period